createdAt,value
2018-06-01T00:00:53.427Z,87.45
2018-06-01T00:02:54.844Z,87.74
2018-06-01T00:04:56.279Z,87.74
2018-06-01T00:06:57.839Z,87.64
2018-06-01T00:08:59.849Z,87.26
2018-06-01T00:11:42.306Z,87.26
2018-06-01T00:13:43.732Z,87.26
2018-06-01T00:15:45.343Z,87.45
2018-06-01T00:17:46.773Z,87.45
2018-06-01T00:20:29.546Z,88.75
2018-06-01T00:22:30.968Z,90.58
2018-06-01T00:24:32.400Z,90.10
2018-06-01T00:26:33.836Z,89.91
2018-06-01T00:28:35.405Z,89.23
2018-06-01T00:31:17.831Z,88.65
2018-06-01T00:33:19.259Z,89.62
2018-06-01T00:35:20.691Z,90.58
2018-06-01T00:37:22.160Z,92.18
2018-06-01T00:39:23.541Z,92.85
2018-06-01T00:41:25.184Z,94.10
2018-06-01T00:43:26.621Z,94.10
2018-06-01T00:45:28.365Z,93.91
2018-06-01T00:47:29.842Z,92.76
2018-06-01T00:49:31.273Z,92.27
2018-06-01T00:51:32.712Z,93.24
2018-06-01T00:53:34.158Z,92.85
2018-06-01T00:55:35.618Z,92.27
2018-06-01T00:57:37.140Z,93.24
2018-06-01T00:59:38.920Z,92.94
2018-06-01T01:01:40.803Z,92.85
2018-06-01T01:03:42.569Z,92.47
2018-06-01T01:05:44.418Z,92.66
2018-06-01T01:07:46.246Z,92.56
2018-06-01T01:09:48.082Z,91.99
2018-06-01T01:11:49.626Z,91.99
2018-06-01T01:13:51.201Z,90.92
2018-06-01T01:15:52.723Z,91.02
2018-06-01T01:17:54.255Z,90.30
2018-06-01T01:19:55.799Z,90.39
2018-06-01T01:21:57.311Z,90.34
2018-06-01T01:23:58.847Z,91.06
2018-06-01T01:26:00.334Z,90.97
2018-06-01T01:28:01.881Z,91.60
2018-06-01T01:30:03.397Z,91.16
2018-06-01T01:32:04.954Z,90.92
2018-06-01T01:34:06.447Z,90.64
2018-06-01T01:36:08.257Z,89.72
2018-06-01T01:38:09.813Z,90.48
2018-06-01T01:40:11.315Z,90.20
2018-06-01T01:42:12.791Z,90.97
2018-06-01T01:44:14.335Z,90.30
2018-06-01T01:46:15.847Z,89.91
2018-06-01T01:48:17.290Z,89.91
2018-06-01T01:50:18.873Z,90.20
2018-06-01T01:52:20.336Z,90.30
2018-06-01T01:54:21.881Z,89.67
2018-06-01T01:56:23.370Z,90.44
2018-06-01T01:58:24.934Z,90.34
2018-06-01T02:00:26.785Z,90.92
2018-06-01T02:02:28.424Z,90.54
2018-06-01T02:04:30.195Z,90.64
2018-06-01T02:06:31.748Z,90.39
2018-06-01T02:08:33.337Z,89.96
2018-06-01T02:10:35.209Z,89.62
2018-06-01T02:12:36.771Z,88.56
2018-06-01T02:14:38.260Z,88.51
2018-06-01T02:16:39.840Z,88.23
2018-06-01T02:18:41.368Z,88.23
2018-06-01T02:21:23.801Z,88.51
2018-06-01T02:23:25.230Z,88.71
2018-06-01T02:25:26.655Z,88.32
2018-06-01T02:27:28.163Z,88.71
2018-06-01T02:29:29.588Z,88.61
2018-06-01T02:32:12.007Z,88.51
2018-06-01T02:34:13.429Z,88.23
2018-06-01T02:36:14.864Z,88.23
2018-06-01T02:38:16.404Z,88.23
2018-06-01T02:40:17.876Z,88.61
2018-06-01T02:42:19.466Z,88.71
2018-06-01T02:44:21.298Z,88.71
2018-06-01T02:46:22.863Z,88.81
2018-06-01T02:48:24.411Z,88.42
2018-06-01T02:51:06.843Z,88.81
2018-06-01T02:53:08.248Z,88.90
2018-06-01T02:55:09.675Z,88.61
2018-06-01T02:57:11.101Z,88.61
2018-06-01T02:59:12.533Z,88.71
2018-06-01T03:01:55.289Z,88.81
2018-06-01T03:03:56.706Z,88.42
2018-06-01T03:05:58.172Z,88.51
2018-06-01T03:07:59.746Z,88.42
2018-06-01T03:10:43.389Z,88.51
2018-06-01T03:12:44.806Z,88.71
2018-06-01T03:14:46.602Z,88.51
2018-06-01T03:16:48.327Z,89.09
2018-06-01T03:18:49.933Z,88.90
2018-06-01T03:20:51.365Z,88.85
2018-06-01T03:22:52.973Z,89.29
2018-06-01T03:24:54.438Z,89.29
2018-06-01T03:26:55.879Z,89.39
2018-06-01T03:28:57.768Z,89.29
2018-06-01T03:31:40.411Z,88.81
2018-06-01T03:33:42.100Z,88.90
2018-06-01T03:35:43.639Z,88.32
2018-06-01T03:37:45.059Z,89.00
2018-06-01T03:40:27.504Z,88.90
2018-06-01T03:42:29.098Z,88.90
2018-06-01T03:44:30.581Z,89.00
2018-06-01T03:46:31.997Z,89.29
2018-06-01T03:48:33.418Z,89.67
2018-06-01T03:51:14.877Z,89.58
2018-06-01T03:53:16.303Z,89.58
2018-06-01T03:55:17.727Z,90.54
2018-06-01T03:57:19.165Z,90.64
2018-06-01T03:59:21.002Z,90.34
2018-06-01T04:01:22.883Z,90.54
2018-06-01T04:03:24.313Z,90.34
2018-06-01T04:05:26.043Z,90.34
2018-06-01T04:07:27.464Z,90.64
2018-06-01T04:09:29.025Z,90.16
2018-06-01T04:11:30.509Z,90.64
2018-06-01T04:13:31.977Z,90.92
2018-06-01T04:15:33.721Z,90.97
2018-06-01T04:17:35.615Z,90.88
2018-06-01T04:19:37.173Z,90.78
2018-06-01T04:21:39.058Z,90.88
2018-06-01T04:23:40.586Z,90.58
2018-06-01T04:25:42.359Z,91.26
2018-06-01T04:27:44.046Z,90.88
2018-06-01T04:29:45.512Z,90.58
2018-06-01T04:31:47.406Z,90.97
2018-06-01T04:33:49.406Z,91.55
2018-06-01T04:35:51.206Z,91.36
2018-06-01T04:37:52.737Z,90.68
2018-06-01T04:39:54.234Z,91.55
2018-06-01T04:41:55.951Z,91.74
2018-06-01T04:43:57.464Z,91.55
2018-06-01T04:45:59.302Z,91.45
2018-06-01T04:48:00.848Z,91.93
2018-06-01T04:50:02.353Z,92.03
2018-06-01T04:52:03.875Z,92.99
2018-06-01T04:54:05.418Z,92.99
2018-06-01T04:56:06.993Z,93.86
2018-06-01T04:58:08.517Z,94.34
2018-06-01T05:00:10.038Z,95.07
2018-06-01T05:02:11.609Z,95.74
2018-06-01T05:04:13.385Z,96.56
2018-06-01T05:06:14.931Z,96.17
2018-06-01T05:08:16.452Z,95.69
2018-06-01T05:10:17.947Z,94.68
2018-06-01T05:12:19.405Z,94.20
2018-06-01T05:14:21.174Z,94.00
2018-06-01T05:16:22.733Z,95.06
2018-06-01T05:18:24.280Z,94.87
2018-06-01T05:20:25.776Z,93.85
2018-06-01T05:22:27.317Z,93.08
2018-06-01T05:24:28.849Z,92.60
2018-06-01T05:26:30.299Z,92.80
2018-06-01T05:28:31.836Z,93.37
2018-06-01T05:30:33.367Z,93.57
2018-06-01T05:32:34.896Z,92.65
2018-06-01T05:34:36.440Z,92.55
2018-06-01T05:36:38.000Z,92.31
2018-06-01T05:38:39.530Z,91.53
2018-06-01T05:40:41.062Z,90.81
2018-06-01T05:42:42.848Z,87.08
2018-06-01T05:44:44.360Z,85.58
2018-06-01T05:46:46.208Z,84.27
2018-06-01T05:48:47.705Z,82.87
2018-06-01T05:51:29.150Z,83.84
2018-06-01T05:53:30.669Z,85.04
2018-06-01T05:55:32.421Z,83.09
2018-06-01T05:57:33.828Z,78.27
2018-06-01T05:59:35.263Z,74.75
2018-06-01T06:01:36.709Z,72.07
2018-06-01T06:03:38.433Z,70.12
2018-06-01T06:05:39.867Z,69.77
2018-06-01T06:07:41.403Z,69.38
2018-06-01T06:09:42.845Z,69.38
2018-06-01T06:12:25.427Z,69.77
2018-06-01T06:14:26.889Z,71.36
2018-06-01T06:16:28.543Z,71.90
2018-06-01T06:18:30.206Z,73.90
2018-06-01T06:21:12.930Z,75.61
2018-06-01T06:23:14.352Z,77.22
2018-06-01T06:25:15.785Z,78.05
2018-06-01T06:27:17.217Z,79.57
2018-06-01T06:29:18.650Z,80.59
2018-06-01T06:32:01.109Z,82.23
2018-06-01T06:34:02.529Z,83.55
2018-06-01T06:36:03.965Z,84.80
2018-06-01T06:38:05.398Z,85.68
2018-06-01T06:40:47.855Z,84.25
2018-06-01T06:42:49.275Z,80.71
2018-06-01T06:44:50.711Z,78.81
2018-06-01T06:46:52.148Z,78.23
2018-06-01T06:48:53.604Z,76.64
2018-06-01T06:51:36.508Z,79.80
2018-06-01T06:53:38.286Z,77.63
2018-06-01T06:55:40.381Z,80.63
2018-06-01T06:57:42.395Z,82.18
2018-06-01T06:59:43.816Z,82.72
2018-06-01T07:01:45.252Z,82.62
2018-06-01T07:03:46.935Z,84.27
2018-06-01T07:05:48.382Z,85.33
2018-06-01T07:07:49.831Z,82.72
2018-06-01T07:09:51.942Z,81.17
2018-06-01T07:11:54.302Z,84.08
2018-06-01T07:13:55.772Z,81.98
2018-06-01T07:15:57.665Z,81.77
2018-06-01T07:17:59.187Z,78.52
2018-06-01T07:20:00.701Z,77.20
2018-06-01T07:22:02.237Z,77.49
2018-06-01T07:24:03.811Z,75.61
2018-06-01T07:26:05.328Z,74.16
2018-06-01T07:28:06.897Z,75.77
2018-06-01T07:30:08.381Z,78.77
2018-06-01T07:32:09.880Z,78.23
2018-06-01T07:34:11.385Z,78.52
2018-06-01T07:36:12.952Z,78.33
2018-06-01T07:38:14.717Z,79.06
2018-06-01T07:40:16.213Z,82.07
2018-06-01T07:42:17.732Z,80.32
2018-06-01T07:44:20.740Z,79.90
2018-06-01T07:46:22.250Z,82.12
2018-06-01T07:48:24.166Z,82.60
2018-06-01T07:50:26.707Z,80.67
2018-06-01T07:52:28.295Z,81.64
2018-06-01T07:54:29.879Z,80.47
2018-06-01T07:56:31.556Z,81.89
2018-06-01T07:58:33.987Z,81.50
2018-06-01T08:00:35.562Z,80.54
2018-06-01T08:02:56.387Z,79.95
2018-06-01T08:04:59.005Z,82.18
2018-06-01T08:07:00.489Z,81.12
2018-06-01T08:09:02.068Z,81.75
2018-06-01T08:11:03.601Z,84.11
2018-06-01T08:13:05.426Z,85.18
2018-06-01T08:15:07.277Z,80.73
2018-06-01T08:17:09.125Z,81.17
2018-06-01T08:19:10.601Z,81.46
2018-06-01T08:21:12.120Z,84.08
2018-06-01T08:23:14.608Z,82.81
2018-06-01T08:25:16.098Z,83.16
2018-06-01T08:27:17.733Z,84.42
2018-06-01T08:29:19.303Z,85.93
2018-06-01T08:32:02.089Z,86.06
2018-06-01T08:34:04.801Z,85.58
2018-06-01T08:36:06.174Z,85.48
2018-06-01T08:38:07.740Z,86.06
2018-06-01T08:40:09.207Z,86.35
2018-06-01T08:42:51.840Z,85.48
2018-06-01T08:44:53.297Z,87.27
2018-06-01T08:46:54.725Z,87.85
2018-06-01T08:48:56.249Z,87.57
2018-06-01T08:51:38.670Z,86.02
2018-06-01T08:53:40.259Z,87.99
2018-06-01T08:55:41.693Z,87.57
2018-06-01T08:57:43.140Z,87.13
2018-06-01T08:59:44.565Z,87.81
2018-06-01T09:01:46.009Z,86.79
2018-06-01T09:03:47.444Z,87.08
2018-06-01T09:05:48.880Z,87.32
2018-06-01T09:07:50.314Z,86.79
2018-06-01T09:09:51.756Z,86.99
2018-06-01T09:12:34.164Z,86.69
2018-06-01T09:14:35.601Z,87.08
2018-06-01T09:16:37.036Z,86.79
2018-06-01T09:18:38.471Z,85.73
2018-06-01T09:20:39.908Z,87.47
2018-06-01T09:22:41.343Z,86.35
2018-06-01T09:24:42.780Z,85.05
2018-06-01T09:26:44.225Z,85.53
2018-06-01T09:28:45.646Z,86.31
2018-06-01T09:30:47.078Z,85.93
2018-06-01T09:32:48.515Z,86.31
2018-06-01T09:34:49.949Z,86.41
2018-06-01T09:36:51.385Z,85.44
2018-06-01T09:38:52.817Z,87.23
2018-06-01T09:40:54.253Z,86.75
2018-06-01T09:42:55.692Z,88.78
2018-06-01T09:44:57.122Z,85.69
2018-06-01T09:46:58.657Z,87.13
2018-06-01T09:49:00.096Z,86.65
2018-06-01T09:51:01.540Z,87.04
2018-06-01T09:53:02.967Z,87.62
2018-06-01T09:55:04.412Z,87.71
2018-06-01T09:57:05.861Z,88.39
2018-06-01T09:59:07.333Z,87.23
2018-06-01T10:01:08.907Z,86.27
2018-06-01T10:03:10.460Z,86.65
2018-06-01T10:05:11.979Z,86.94
2018-06-01T10:07:13.435Z,88.01
2018-06-01T10:09:15.025Z,89.55
2018-06-01T10:11:16.654Z,87.23
2018-06-01T10:13:18.144Z,85.88
2018-06-01T10:15:19.751Z,87.81
2018-06-01T10:17:21.254Z,88.34
2018-06-01T10:19:22.792Z,86.65
2018-06-01T10:21:24.356Z,87.27
2018-06-01T10:23:26.036Z,88.53
2018-06-01T10:25:27.591Z,86.60
2018-06-01T10:27:29.237Z,85.63
2018-06-01T10:29:31.120Z,86.31
2018-06-01T10:31:32.707Z,87.18
2018-06-01T10:33:34.226Z,85.35
2018-06-01T10:35:35.723Z,87.57
2018-06-01T10:37:37.353Z,86.99
2018-06-01T10:39:38.871Z,86.51
2018-06-01T10:41:40.461Z,85.93
2018-06-01T10:43:41.952Z,85.25
2018-06-01T10:45:43.471Z,85.44
2018-06-01T10:47:44.968Z,85.35
2018-06-01T10:49:46.738Z,86.11
2018-06-01T10:51:48.461Z,86.31
2018-06-01T10:53:49.970Z,87.27
2018-06-01T10:55:51.615Z,88.05
2018-06-01T10:57:53.249Z,87.76
2018-06-01T10:59:55.121Z,87.41
2018-06-01T11:02:37.901Z,89.01
2018-06-01T11:04:39.591Z,89.93
2018-06-01T11:06:41.155Z,90.32
2018-06-01T11:08:42.590Z,91.28
2018-06-01T11:10:44.017Z,91.67
2018-06-01T11:13:27.125Z,92.64
2018-06-01T11:15:28.959Z,91.42
2018-06-01T11:17:30.649Z,91.14
2018-06-01T11:19:32.128Z,89.88
2018-06-01T11:21:33.689Z,90.17
2018-06-01T11:23:35.112Z,91.42
2018-06-01T11:25:36.613Z,90.94
2018-06-01T11:27:38.335Z,88.39
2018-06-01T11:29:40.144Z,89.83
2018-06-01T11:32:22.596Z,89.74
2018-06-01T11:34:24.007Z,89.93
2018-06-01T11:36:25.451Z,89.83
2018-06-01T11:38:26.942Z,90.22
2018-06-01T11:40:28.359Z,88.96
2018-06-01T11:42:29.819Z,92.64
2018-06-01T11:44:31.261Z,93.17
2018-06-01T11:46:32.712Z,91.04
2018-06-01T11:48:34.146Z,88.13
2018-06-01T11:50:35.702Z,88.71
2018-06-01T11:53:18.460Z,87.17
2018-06-01T11:55:19.878Z,87.85
2018-06-01T11:57:21.317Z,87.79
2018-06-01T11:59:22.903Z,87.74
2018-06-01T12:01:24.550Z,84.25
2018-06-01T12:03:26.025Z,85.51
2018-06-01T12:05:27.617Z,85.22
2018-06-01T12:07:29.224Z,84.93
2018-06-01T12:09:30.660Z,85.22
2018-06-01T12:11:32.176Z,84.74
2018-06-01T12:13:33.656Z,81.83
2018-06-01T12:15:35.157Z,83.58
2018-06-01T12:17:36.816Z,83.96
2018-06-01T12:19:38.263Z,84.06
2018-06-01T12:21:39.965Z,85.61
2018-06-01T12:23:41.427Z,83.67
2018-06-01T12:25:42.978Z,84.89
2018-06-01T12:27:44.425Z,83.63
2018-06-01T12:29:45.868Z,85.76
2018-06-01T12:31:47.310Z,86.48
2018-06-01T12:33:48.740Z,83.62
2018-06-01T12:35:50.176Z,79.99
2018-06-01T12:37:51.625Z,82.84
2018-06-01T12:39:53.187Z,80.90
2018-06-01T12:41:54.695Z,77.94
2018-06-01T12:43:56.415Z,79.24
2018-06-01T12:45:57.871Z,82.38
2018-06-01T12:47:59.311Z,75.55
2018-06-01T12:50:00.806Z,75.74
2018-06-01T12:52:02.242Z,76.00
2018-06-01T12:54:03.831Z,76.00
2018-06-01T12:56:05.240Z,77.84
2018-06-01T12:58:06.676Z,76.93
2018-06-01T13:00:08.121Z,78.29
2018-06-01T13:02:09.556Z,78.77
2018-06-01T13:04:11.200Z,76.89
2018-06-01T13:06:12.853Z,78.83
2018-06-01T13:08:14.367Z,79.41
2018-06-01T13:10:15.896Z,82.32
2018-06-01T13:12:17.489Z,85.31
2018-06-01T13:14:19.167Z,81.98
2018-06-01T13:16:20.610Z,85.47
2018-06-01T13:18:22.039Z,85.47
2018-06-01T13:20:23.529Z,85.57
2018-06-01T13:22:25.020Z,85.86
2018-06-01T13:24:26.695Z,86.34
2018-06-01T13:26:28.141Z,85.18
2018-06-01T13:28:31.292Z,87.02
2018-06-01T13:30:32.729Z,88.13
2018-06-01T13:32:34.307Z,87.35
2018-06-01T13:34:36.037Z,83.86
2018-06-01T13:36:37.859Z,81.64
2018-06-01T13:38:39.415Z,83.83
2018-06-01T13:40:40.872Z,85.51
2018-06-01T13:42:42.536Z,81.79
2018-06-01T13:44:44.019Z,80.82
2018-06-01T13:46:45.679Z,81.50
2018-06-01T13:48:47.220Z,84.79
2018-06-01T13:50:48.661Z,81.98
2018-06-01T13:52:50.361Z,80.63
2018-06-01T13:54:51.806Z,83.09
2018-06-01T13:56:53.310Z,82.03
2018-06-01T13:58:55.074Z,84.21
2018-06-01T14:00:56.823Z,83.77
2018-06-01T14:03:39.315Z,82.70
2018-06-01T14:05:40.757Z,81.93
2018-06-01T14:07:42.191Z,82.60
2018-06-01T14:09:43.670Z,82.07
2018-06-01T14:11:45.119Z,81.97
2018-06-01T14:13:46.753Z,81.39
2018-06-01T14:15:48.218Z,79.39
2018-06-01T14:17:49.681Z,79.97
2018-06-01T14:19:51.130Z,78.13
2018-06-01T14:22:33.558Z,77.06
2018-06-01T14:24:34.997Z,77.94
2018-06-01T14:26:36.465Z,76.10
2018-06-01T14:28:37.881Z,76.91
2018-06-01T14:30:39.316Z,77.92
2018-06-01T14:32:40.751Z,75.88
2018-06-01T14:34:42.192Z,75.68
2018-06-01T14:36:43.625Z,75.55
2018-06-01T14:38:45.068Z,76.27
2018-06-01T14:40:46.657Z,78.99
2018-06-01T14:42:47.953Z,75.14
2018-06-01T14:44:49.392Z,75.30
2018-06-01T14:46:50.887Z,75.72
2018-06-01T14:48:52.345Z,75.92
2018-06-01T14:50:53.810Z,74.85
2018-06-01T14:53:36.313Z,75.04
2018-06-01T14:55:37.751Z,75.04
2018-06-01T14:57:39.184Z,74.62
2018-06-01T14:59:40.623Z,74.52
2018-06-01T15:01:42.089Z,77.72
2018-06-01T15:03:43.528Z,76.75
2018-06-01T15:05:44.997Z,76.27
2018-06-01T15:07:46.426Z,77.34
2018-06-01T15:09:47.864Z,76.75
2018-06-01T15:12:30.307Z,76.23
2018-06-01T15:14:31.784Z,77.39
2018-06-01T15:16:33.272Z,78.42
2018-06-01T15:18:34.705Z,79.49
2018-06-01T15:20:36.149Z,79.00
2018-06-01T15:22:37.669Z,79.16
2018-06-01T15:24:39.072Z,81.82
2018-06-01T15:26:40.600Z,81.43
2018-06-01T15:28:42.041Z,81.72
2018-06-01T15:30:43.480Z,82.10
2018-06-01T15:32:44.919Z,80.52
2018-06-01T15:34:46.488Z,81.72
2018-06-01T15:36:47.927Z,80.26
2018-06-01T15:38:49.365Z,80.32
2018-06-01T15:40:50.898Z,81.10
2018-06-01T15:42:52.263Z,80.62
2018-06-01T15:44:53.699Z,81.43
2018-06-01T15:46:55.143Z,81.91
2018-06-01T15:48:56.625Z,80.55
2018-06-01T15:50:58.257Z,80.36
2018-06-01T15:52:59.687Z,79.88
2018-06-01T15:55:01.281Z,79.97
2018-06-01T15:57:02.792Z,80.13
2018-06-01T15:59:04.248Z,81.00
2018-06-01T16:01:05.803Z,80.52
2018-06-01T16:03:07.250Z,80.71
2018-06-01T16:05:08.681Z,81.48
2018-06-01T16:07:10.116Z,81.29
2018-06-01T16:09:11.582Z,80.17
2018-06-01T16:11:13.043Z,80.80
2018-06-01T16:13:14.580Z,79.78
2018-06-01T16:15:16.041Z,78.52
2018-06-01T16:17:17.469Z,78.33
2018-06-01T16:19:19.115Z,78.13
2018-06-01T16:21:20.641Z,76.39
2018-06-01T16:23:22.171Z,76.19
2018-06-01T16:25:23.910Z,74.51
2018-06-01T16:27:25.444Z,74.99
2018-06-01T16:29:26.901Z,75.57
2018-06-01T16:31:28.516Z,75.67
2018-06-01T16:33:30.001Z,75.73
2018-06-01T16:35:31.669Z,76.93
2018-06-01T16:37:33.129Z,77.61
2018-06-01T16:39:34.683Z,77.03
2018-06-01T16:41:36.479Z,77.70
2018-06-01T16:43:37.941Z,78.38
2018-06-01T16:45:39.706Z,77.32
2018-06-01T16:47:41.418Z,77.61
2018-06-01T16:49:43.316Z,78.38
2018-06-01T16:51:44.861Z,78.13
2018-06-01T16:54:27.452Z,77.75
2018-06-01T16:56:28.906Z,77.94
2018-06-01T16:58:30.383Z,77.94
2018-06-01T17:00:31.825Z,77.55
2018-06-01T17:03:14.287Z,76.29
2018-06-01T17:05:15.751Z,73.96
2018-06-01T17:07:17.191Z,74.84
2018-06-01T17:09:18.628Z,75.48
2018-06-01T17:11:20.236Z,75.51
2018-06-01T17:13:21.642Z,74.70
2018-06-01T17:15:23.110Z,74.86
2018-06-01T17:17:24.566Z,76.41
2018-06-01T17:19:26.320Z,77.09
2018-06-01T17:21:27.742Z,77.76
2018-06-01T17:24:10.216Z,77.92
2018-06-01T17:26:11.653Z,78.31
2018-06-01T17:28:13.129Z,78.31
2018-06-01T17:30:14.594Z,79.57
2018-06-01T17:32:16.026Z,79.17
2018-06-01T17:34:58.533Z,78.50
2018-06-01T17:36:59.966Z,78.36
2018-06-01T17:39:01.404Z,77.98
2018-06-01T17:41:02.835Z,79.49
2018-06-01T17:43:45.274Z,80.79
2018-06-01T17:45:46.754Z,79.39
2018-06-01T17:47:48.185Z,79.00
2018-06-01T17:49:49.619Z,78.23
2018-06-01T17:51:51.149Z,77.94
2018-06-01T17:53:52.651Z,77.45
2018-06-01T17:55:54.085Z,77.75
2018-06-01T17:57:55.510Z,77.36
2018-06-01T17:59:56.996Z,79.10
2018-06-01T18:01:58.508Z,77.65
2018-06-01T18:03:59.949Z,76.97
2018-06-01T18:06:01.424Z,75.71
2018-06-01T18:08:02.886Z,76.87
2018-06-01T18:10:04.315Z,76.20
2018-06-01T18:12:05.766Z,76.10
2018-06-01T18:14:07.315Z,75.81
2018-06-01T18:16:08.894Z,75.97
2018-06-01T18:18:10.445Z,75.97
2018-06-01T18:20:11.910Z,76.35
2018-06-01T18:22:13.432Z,76.64
2018-06-01T18:24:14.921Z,76.45
2018-06-01T18:26:16.612Z,76.06
2018-06-01T18:28:18.197Z,76.45
2018-06-01T18:30:20.034Z,76.45
2018-06-01T18:32:21.627Z,76.93
2018-06-01T18:34:23.287Z,77.13
2018-06-01T18:36:24.984Z,76.74
2018-06-01T18:38:26.739Z,77.22
2018-06-01T18:40:28.604Z,77.42
2018-06-01T18:42:30.117Z,77.90
2018-06-01T18:44:31.817Z,77.61
2018-06-01T18:46:33.328Z,78.00
2018-06-01T18:48:35.107Z,78.19
2018-06-01T18:50:36.618Z,79.16
2018-06-01T18:52:38.106Z,79.74
2018-06-01T18:54:39.622Z,80.12
2018-06-01T18:56:41.406Z,80.41
2018-06-01T18:58:43.129Z,80.32
2018-06-01T19:00:44.614Z,79.45
2018-06-01T19:02:46.398Z,79.74
2018-06-01T19:04:48.164Z,79.45
2018-06-01T19:06:49.641Z,80.03
2018-06-01T19:08:51.150Z,80.38
2018-06-01T19:10:52.877Z,80.03
2018-06-01T19:12:54.687Z,80.18
2018-06-01T19:14:56.213Z,80.95
2018-06-01T19:16:57.722Z,80.86
2018-06-01T19:18:59.505Z,80.57
2018-06-01T19:21:01.021Z,81.24
2018-06-01T19:23:02.536Z,80.66
2018-06-01T19:25:04.053Z,80.66
2018-06-01T19:27:05.563Z,81.15
2018-06-01T19:29:07.074Z,81.20
2018-06-01T19:31:08.550Z,81.88
2018-06-01T19:33:10.326Z,82.17
2018-06-01T19:35:11.840Z,82.07
2018-06-01T19:37:13.364Z,81.88
2018-06-01T19:39:15.107Z,81.88
2018-06-01T19:41:16.933Z,81.73
2018-06-01T19:43:59.389Z,81.78
2018-06-01T19:46:00.851Z,82.21
2018-06-01T19:48:02.335Z,81.68
2018-06-01T19:50:03.749Z,81.98
2018-06-01T19:52:05.203Z,82.17
2018-06-01T19:54:47.627Z,82.56
2018-06-01T19:56:49.057Z,82.46
2018-06-01T19:58:50.480Z,82.07
2018-06-01T20:00:51.913Z,82.56
2018-06-01T20:02:53.332Z,82.94
2018-06-01T20:04:54.792Z,82.42
2018-06-01T20:06:56.193Z,83.19
2018-06-01T20:08:57.797Z,83.19
2018-06-01T20:10:59.210Z,83.58
2018-06-01T20:13:00.731Z,83.39
2018-06-01T20:15:02.154Z,84.35
2018-06-01T20:17:03.701Z,84.35
2018-06-01T20:19:05.392Z,84.41
2018-06-01T20:21:06.989Z,84.69
2018-06-01T20:23:49.599Z,85.46
2018-06-01T20:25:51.023Z,85.33
2018-06-01T20:27:52.454Z,85.81
2018-06-01T20:29:53.920Z,85.52
2018-06-01T20:31:55.318Z,85.81
2018-06-01T20:33:56.743Z,86.39
2018-06-01T20:35:58.165Z,86.63
2018-06-01T20:37:59.594Z,86.92
2018-06-01T20:40:01.022Z,87.60
2018-06-01T20:42:02.454Z,88.46
2018-06-01T20:44:44.991Z,89.62
2018-06-01T20:46:46.400Z,90.10
2018-06-01T20:48:47.831Z,91.12
2018-06-01T20:50:49.259Z,92.42
2018-06-01T20:52:50.732Z,93.29
2018-06-01T20:54:52.158Z,94.15
2018-06-01T20:56:53.586Z,93.91
2018-06-01T20:58:55.072Z,95.07
2018-06-01T21:00:56.471Z,95.65
2018-06-01T21:02:57.899Z,94.49
2018-06-01T21:04:59.399Z,94.10
2018-06-01T21:07:00.830Z,94.20
2018-06-01T21:09:02.275Z,94.10
2018-06-01T21:11:03.925Z,94.59
2018-06-01T21:13:05.752Z,94.30
2018-06-01T21:15:07.499Z,93.82
2018-06-01T21:17:09.016Z,94.10
2018-06-01T21:19:10.572Z,94.20
2018-06-01T21:21:12.120Z,93.82
2018-06-01T21:23:13.541Z,93.72
2018-06-01T21:25:15.115Z,92.76
2018-06-01T21:27:16.607Z,93.05
2018-06-01T21:29:18.206Z,93.62
2018-06-01T21:31:19.655Z,93.33
2018-06-01T21:33:21.101Z,93.91
2018-06-01T21:35:22.520Z,94.06
2018-06-01T21:37:23.950Z,94.45
2018-06-01T21:39:25.521Z,94.30
2018-06-01T21:41:26.923Z,93.82
2018-06-01T21:43:28.478Z,92.76
2018-06-01T21:45:30.032Z,92.47
2018-06-01T21:47:31.699Z,91.89
2018-06-01T21:49:33.546Z,92.95
2018-06-01T21:51:35.307Z,93.19
2018-06-01T21:53:36.874Z,93.15
2018-06-01T21:55:38.618Z,92.76
2018-06-01T21:57:40.217Z,92.76
2018-06-01T21:59:41.736Z,92.76
2018-06-01T22:01:43.279Z,92.28
2018-06-01T22:03:44.789Z,92.76
2018-06-01T22:05:46.435Z,92.95
2018-06-01T22:07:47.975Z,92.38
2018-06-01T22:09:49.707Z,93.10
2018-06-01T22:11:51.264Z,92.66
2018-06-01T22:13:52.780Z,92.95
2018-06-01T22:15:54.430Z,92.18
2018-06-01T22:17:55.985Z,92.28
2018-06-01T22:19:57.482Z,92.47
2018-06-01T22:21:59.018Z,92.28
2018-06-01T22:24:00.529Z,92.95
2018-06-01T22:26:01.963Z,93.00
2018-06-01T22:28:03.492Z,92.43
2018-06-01T22:30:04.997Z,92.43
2018-06-01T22:32:06.414Z,92.33
2018-06-01T22:34:48.833Z,91.80
2018-06-01T22:36:50.301Z,92.43
2018-06-01T22:38:51.727Z,92.33
2018-06-01T22:40:53.134Z,92.52
2018-06-01T22:42:54.625Z,92.61
2018-06-01T22:45:37.033Z,92.52
2018-06-01T22:47:38.556Z,92.86
2018-06-01T22:49:39.980Z,93.15
2018-06-01T22:51:41.409Z,92.19
2018-06-01T22:54:23.828Z,92.43
2018-06-01T22:56:25.292Z,91.80
2018-06-01T22:58:26.727Z,93.24
2018-06-01T23:00:28.190Z,93.91
2018-06-01T23:02:29.648Z,93.53
2018-06-01T23:05:12.058Z,93.53
2018-06-01T23:07:13.500Z,94.11
2018-06-01T23:09:14.923Z,93.73
2018-06-01T23:11:16.490Z,92.67
2018-06-01T23:13:59.907Z,93.15
2018-06-01T23:16:01.329Z,92.67
2018-06-01T23:18:02.756Z,92.81
2018-06-01T23:20:04.603Z,92.38
2018-06-01T23:22:06.030Z,91.52
2018-06-01T23:24:47.462Z,90.59
2018-06-01T23:26:48.880Z,90.59
2018-06-01T23:28:50.304Z,89.25
2018-06-01T23:30:52.289Z,89.64
2018-06-01T23:32:53.842Z,90.12
2018-06-01T23:35:36.845Z,89.68
2018-06-01T23:37:38.759Z,88.91
2018-06-01T23:39:40.225Z,88.62
2018-06-01T23:41:41.788Z,89.06
2018-06-01T23:44:24.445Z,89.44
2018-06-01T23:46:26.296Z,89.44
2018-06-01T23:48:28.207Z,90.50
2018-06-01T23:50:29.656Z,91.03
2018-06-01T23:52:31.082Z,91.03
2018-06-01T23:54:32.501Z,91.32
2018-06-01T23:56:34.417Z,92.05
2018-06-01T23:58:35.843Z,92.81
